Time;durP1;ratioP1;P1;durP2;ratioP2;P2;SDS_P1;SDS_P2;PMS_P1;PMS_P2;Temp;Humidity;BMP_temperature;BMP_pressure;BME280_temperature;BME280_humidity;BME280_pressure;Samples;Min_cycle;Max_cycle;Signal;HPM_P1;HPM_P2
2022/06/14 00:01:52;;;;;;;3.85;1.50;;;15.10;49.40;;;;;;5062704;28;20393;-52
2022/06/14 00:04:21;;;;;;;5.03;1.15;;;15.10;50.10;;;;;;5071531;28;20092;-48
2022/06/14 00:06:48;;;;;;;2.28;0.98;;;15.00;49.50;;;;;;5062382;28;20040;-52
2022/06/14 00:09:15;;;;;;;1.42;0.95;;;15.00;49.60;;;;;;5064473;28;20043;-48
2022/06/14 00:11:42;;;;;;;2.95;0.52;;;14.90;49.60;;;;;;5054839;28;20086;-50
2022/06/14 00:14:10;;;;;;;9.00;1.33;;;14.90;49.60;;;;;;5063740;28;20049;-49
2022/06/14 00:16:38;;;;;;;2.45;0.90;;;14.80;49.80;;;;;;5062078;28;20119;-49
2022/06/14 00:19:05;;;;;;;1.63;0.85;;;14.80;49.90;;;;;;5070829;28;20040;-49
2022/06/14 00:21:36;;;;;;;1.65;0.85;;;14.80;50.00;;;;;;5063118;28;20644;-52
2022/06/14 00:24:04;;;;;;;2.63;0.80;;;14.70;50.10;;;;;;5068108;28;20040;-48
2022/06/14 00:26:31;;;;;;;4.32;1.63;;;14.70;50.20;;;;;;5062174;28;20057;-49
2022/06/14 00:28:58;;;;;;;1.40;1.00;;;14.60;50.10;;;;;;5068414;28;20052;-52
2022/06/14 00:31:27;;;;;;;1.38;0.93;;;14.60;50.30;;;;;;5060035;28;20036;-46
2022/06/14 00:33:57;;;;;;;1.85;0.90;;;14.60;50.40;;;;;;5065472;28;20043;-49
2022/06/14 00:36:30;;;;;;;5.05;1.75;;;14.50;50.30;;;;;;5063011;28;20040;-49
2022/06/14 00:38:59;;;;;;;2.03;0.75;;;14.50;50.70;;;;;;5067858;28;20055;-47
2022/06/14 00:41:41;;;;;;;3.95;0.93;;;14.40;50.60;;;;;;5064265;28;20333;-49
2022/06/14 00:44:16;;;;;;;3.72;0.90;;;14.40;50.80;;;;;;5069984;28;20049;-48
2022/06/14 00:47:03;;;;;;;3.83;1.38;;;14.40;50.80;;;;;;5056108;28;20076;-48
2022/06/14 00:49:42;;;;;;;3.70;0.77;;;14.40;51.30;;;;;;5067573;28;20151;-51
2022/06/14 00:52:17;;;;;;;1.70;0.90;;;14.30;51.00;;;;;;5065171;28;20049;-50
2022/06/14 00:54:48;;;;;;;2.15;0.80;;;14.30;51.20;;;;;;5066848;28;20037;-49
2022/06/14 00:57:19;;;;;;;4.22;1.65;;;14.20;50.60;;;;;;5063275;28;20098;-49
2022/06/14 00:59:54;;;;;;;3.03;0.60;;;14.20;50.70;;;;;;5064024;28;20090;-49
2022/06/14 01:02:25;;;;;;;2.25;1.00;;;14.20;51.10;;;;;;5064848;28;20048;-52
2022/06/14 01:04:53;;;;;;;0.82;0.82;;;14.10;50.90;;;;;;5063740;28;20044;-48
2022/06/14 01:07:26;;;;;;;1.10;0.98;;;14.10;50.80;;;;;;5061779;28;20507;-52
2022/06/14 01:10:01;;;;;;;3.55;1.23;;;14.00;51.10;;;;;;5069948;28;20049;-49
2022/06/14 01:12:33;;;;;;;2.63;1.20;;;14.00;51.20;;;;;;5062776;28;20503;-48
2022/06/14 01:15:05;;;;;;;3.42;1.38;;;14.00;51.40;;;;;;5059821;28;20044;-50
2022/06/14 01:17:40;;;;;;;3.13;1.23;;;14.00;51.30;;;;;;5068452;28;20047;-48
2022/06/14 01:20:11;;;;;;;1.08;0.95;;;13.90;51.10;;;;;;5062782;28;20040;-46
2022/06/14 01:22:39;;;;;;;3.03;1.40;;;13.90;51.20;;;;;;5057777;28;20416;-50
2022/06/14 01:25:07;;;;;;;3.55;1.20;;;13.80;51.10;;;;;;5061024;28;20064;-46
2022/06/14 01:27:37;;;;;;;2.63;0.95;;;13.80;51.30;;;;;;5069623;28;20496;-49
2022/06/14 01:30:24;;;;;;;3.72;1.20;;;13.80;51.40;;;;;;5065543;28;20091;-47
2022/06/14 01:33:03;;;;;;;2.30;1.38;;;13.70;51.50;;;;;;5062228;28;20091;-46
2022/06/14 01:35:35;;;;;;;1.45;1.33;;;13.70;52.10;;;;;;5060865;28;20036;-49
2022/06/14 01:38:06;;;;;;;2.10;1.27;;;13.70;51.80;;;;;;5069625;28;20051;-49
2022/06/14 01:40:54;;;;;;;2.97;0.90;;;13.70;51.90;;;;;;5057847;28;20632;-51
2022/06/14 01:43:27;;;;;;;6.32;1.25;;;13.60;52.40;;;;;;5065107;28;20492;-48
2022/06/14 01:46:03;;;;;;;2.03;0.93;;;13.60;52.10;;;;;;5057275;28;20058;-49
2022/06/14 01:48:44;;;;;;;2.65;1.05;;;13.60;52.20;;;;;;5069382;28;20090;-50
2022/06/14 01:51:52;;;;;;;2.35;1.05;;;13.60;52.40;;;;;;5059047;28;20063;-45
2022/06/14 01:54:19;;;;;;;2.65;1.20;;;13.50;51.90;;;;;;5066782;28;20522;-49
2022/06/14 01:57:00;;;;;;;1.55;1.00;;;13.50;51.60;;;;;;5061086;28;20044;-49
2022/06/14 01:59:43;;;;;;;2.67;0.98;;;13.50;51.70;;;;;;5068496;28;20117;-52
2022/06/14 02:02:20;;;;;;;4.28;1.40;;;13.50;52.20;;;;;;5051033;28;20098;-49
2022/06/14 02:04:56;;;;;;;4.00;1.02;;;13.40;52.20;;;;;;5067683;28;20048;-48
2022/06/14 02:07:28;;;;;;;1.42;0.90;;;13.40;51.90;;;;;;5064037;28;20049;-47
2022/06/14 02:10:18;;;;;;;1.48;0.70;;;13.40;52.50;;;;;;5067818;28;20044;-47
2022/06/14 02:13:09;;;;;;;1.52;1.00;;;13.40;52.50;;;;;;5060421;28;20861;-47
2022/06/14 02:15:50;;;;;;;6.13;1.33;;;13.30;52.90;;;;;;5056273;28;20047;-48
2022/06/14 02:18:31;;;;;;;3.00;1.30;;;13.30;52.60;;;;;;5068636;28;20052;-48
2022/06/14 02:21:22;;;;;;;1.85;1.40;;;13.30;52.90;;;;;;5057568;28;20565;-48
2022/06/14 02:23:54;;;;;;;3.15;1.30;;;13.20;52.70;;;;;;5060464;28;20045;-49
2022/06/14 02:26:39;;;;;;;4.82;0.90;;;13.20;52.30;;;;;;5044349;28;20045;-51
2022/06/14 02:29:16;;;;;;;2.17;1.40;;;13.20;52.90;;;;;;5064547;28;20519;-51
2022/06/14 02:32:01;;;;;;;3.30;1.02;;;13.10;52.70;;;;;;5062048;28;20443;-52
2022/06/14 02:34:42;;;;;;;2.63;0.82;;;13.10;52.90;;;;;;5066605;28;20048;-48
2022/06/14 02:37:24;;;;;;;1.98;1.02;;;13.10;52.90;;;;;;5061493;28;20045;-50
2022/06/14 02:40:19;;;;;;;3.42;1.27;;;13.10;53.00;;;;;;5059451;28;20053;-46
2022/06/14 02:42:58;;;;;;;1.30;0.85;;;13.00;53.20;;;;;;5064339;28;20381;-51
2022/06/14 02:45:37;;;;;;;2.53;1.15;;;13.10;52.90;;;;;;5041546;28;20385;-48
2022/06/14 02:48:20;;;;;;;3.75;1.17;;;13.00;53.20;;;;;;5067643;28;20037;-50
2022/06/14 02:50:59;;;;;;;0.88;0.88;;;13.00;53.20;;;;;;5056353;28;20064;-47
2022/06/14 02:53:34;;;;;;;1.70;1.15;;;12.90;52.90;;;;;;5064210;28;20036;-50
2022/06/14 02:56:13;;;;;;;1.23;1.00;;;12.90;53.20;;;;;;5059309;28;20044;-52
2022/06/14 02:58:55;;;;;;;1.95;1.00;;;12.90;52.90;;;;;;5058503;28;20067;-51
2022/06/14 03:01:45;;;;;;;0.70;0.70;;;12.90;53.00;;;;;;5059797;28;20749;-50
2022/06/14 03:04:56;;;;;;;2.85;0.85;;;12.90;53.40;;;;;;5067879;28;20105;-48
2022/06/14 03:07:28;;;;;;;2.45;0.82;;;12.90;53.90;;;;;;4981936;28;20091;-52
2022/06/14 03:09:56;;;;;;;1.70;1.30;;;12.80;52.60;;;;;;5049554;28;20060;-48
2022/06/14 03:12:39;;;;;;;2.00;1.00;;;12.70;52.50;;;;;;5064843;28;20045;-52
2022/06/14 03:15:21;;;;;;;1.80;1.30;;;12.70;53.30;;;;;;5057270;28;20075;-46
2022/06/14 03:18:36;;;;;;;2.15;0.85;;;12.70;52.70;;;;;;5059380;28;20458;-49
2022/06/14 03:21:19;;;;;;;3.35;0.80;;;12.70;53.60;;;;;;4952331;28;20051;-49
2022/06/14 03:24:09;;;;;;;4.00;1.13;;;12.70;52.90;;;;;;5049743;28;20049;-47
2022/06/14 03:26:55;;;;;;;1.33;1.23;;;12.60;53.60;;;;;;5057248;28;20033;-48
2022/06/14 03:29:45;;;;;;;2.00;1.30;;;12.60;53.60;;;;;;5067986;28;20066;-48
2022/06/14 03:32:22;;;;;;;2.53;1.00;;;12.60;53.60;;;;;;5057480;28;20047;-51
2022/06/14 03:35:02;;;;;;;4.57;1.10;;;12.60;53.40;;;;;;5061907;28;20045;-49
2022/06/14 03:37:28;;;;;;;2.30;1.15;;;12.50;53.40;;;;;;5063518;28;20511;-48
2022/06/14 03:40:01;;;;;;;2.17;0.90;;;12.50;53.00;;;;;;5067242;28;20085;-46
2022/06/14 03:42:27;;;;;;;;;;;12.50;53.50;;;;;;5066032;28;20048;-52
2022/06/14 03:44:56;;;;;;;2.75;1.27;;;12.50;53.30;;;;;;5060290;28;20389;-49
2022/06/14 03:47:27;;;;;;;2.58;0.95;;;12.50;53.00;;;;;;5070935;28;20119;-48
2022/06/14 03:50:02;;;;;;;3.10;1.20;;;12.50;53.40;;;;;;5067260;28;20397;-50
2022/06/14 03:52:40;;;;;;;1.42;0.82;;;12.50;54.20;;;;;;5060564;28;20829;-49
2022/06/14 03:55:45;;;;;;;2.85;0.88;;;12.50;53.80;;;;;;5064758;28;20047;-55
2022/06/14 03:58:39;;;;;;;1.30;1.00;;;12.50;55.10;;;;;;5071145;28;20129;-49
2022/06/14 04:01:15;;;;;;;2.38;0.80;;;12.50;54.90;;;;;;5061917;28;20055;-52
2022/06/14 04:04:00;;;;;;;4.60;1.30;;;12.50;54.50;;;;;;5068214;28;20036;-47
2022/06/14 04:06:49;;;;;;;1.63;1.10;;;12.50;54.00;;;;;;5064004;28;20448;-48
2022/06/14 04:09:50;;;;;;;1.30;1.20;;;12.50;54.60;;;;;;5072885;28;20396;-48
2022/06/14 04:12:32;;;;;;;1.33;1.15;;;12.50;55.30;;;;;;5059802;28;20037;-52
2022/06/14 04:15:09;;;;;;;1.38;1.00;;;12.50;54.60;;;;;;5062121;28;20048;-51
2022/06/14 04:17:46;;;;;;;3.72;1.00;;;12.50;55.20;;;;;;5061525;28;20117;-52
2022/06/14 04:20:39;;;;;;;2.45;1.33;;;12.60;55.50;;;;;;5051878;28;20213;-53
2022/06/14 04:23:11;;;;;;;;;;;12.60;56.00;;;;;;5065760;28;20458;-48
2022/06/14 04:25:42;;;;;;;2.53;1.40;;;12.60;54.80;;;;;;5061795;28;19931;-51
2022/06/14 04:28:16;;;;;;;2.15;1.35;;;12.70;54.40;;;;;;5071549;28;20044;-48
2022/06/14 04:30:48;;;;;;;2.35;1.50;;;12.60;54.70;;;;;;5060565;28;20526;-49
2022/06/14 04:33:20;;;;;;;2.65;1.40;;;12.70;56.00;;;;;;5061219;28;20041;-50
2022/06/14 04:35:55;;;;;;;1.83;1.50;;;12.70;56.00;;;;;;5060459;28;20102;-48
2022/06/14 04:38:39;;;;;;;1.50;1.35;;;12.70;56.50;;;;;;5070330;28;20134;-49
2022/06/14 04:41:10;;;;;;;1.90;1.48;;;12.80;57.30;;;;;;5061330;28;20106;-47
2022/06/14 04:44:02;;;;;;;2.10;1.33;;;12.80;56.20;;;;;;5067506;28;20093;-51
2022/06/14 04:46:39;;;;;;;2.83;1.30;;;12.90;56.50;;;;;;5061192;28;20086;-49
2022/06/14 04:49:12;;;;;;;3.05;1.52;;;12.90;57.00;;;;;;5069245;28;20040;-47
2022/06/14 04:51:49;;;;;;;2.65;1.80;;;13.00;56.50;;;;;;5057703;28;20045;-49
2022/06/14 04:54:21;;;;;;;2.17;1.67;;;13.00;57.10;;;;;;5066242;28;20044;-51
2022/06/14 04:57:10;;;;;;;3.15;1.75;;;13.10;57.30;;;;;;5063751;28;20047;-48
2022/06/14 04:59:50;;;;;;;3.53;1.88;;;13.10;58.20;;;;;;5065372;28;20037;-48
2022/06/14 05:02:27;;;;;;;4.43;2.15;;;13.20;58.00;;;;;;5064223;28;20041;-50
2022/06/14 05:05:06;;;;;;;5.72;2.40;;;13.30;58.20;;;;;;5063868;28;20712;-49
2022/06/14 05:07:56;;;;;;;4.85;2.65;;;13.30;58.50;;;;;;5066057;28;20033;-47
2022/06/14 05:10:27;;;;;;;7.85;2.97;;;13.40;59.60;;;;;;5054490;28;20078;-51
2022/06/14 05:13:02;;;;;;;4.63;3.30;;;13.50;58.30;;;;;;5061632;28;20051;-50
2022/06/14 05:15:42;;;;;;;6.28;2.92;;;13.60;58.20;;;;;;5053742;28;20041;-48
2022/06/14 05:18:20;;;;;;;3.78;3.10;;;13.70;59.50;;;;;;5068273;28;20064;-50
2022/06/14 05:21:05;;;;;;;4.13;2.80;;;13.70;58.90;;;;;;5055799;28;20053;-49
2022/06/14 05:23:38;;;;;;;5.03;3.33;;;13.80;60.00;;;;;;5064731;28;20045;-52
2022/06/14 05:26:29;;;;;;;8.23;4.00;;;13.90;59.30;;;;;;5054943;28;20056;-52
2022/06/14 05:28:56;;;;;;;5.97;3.40;;;14.00;59.90;;;;;;5057227;28;20446;-50
2022/06/14 05:31:40;;;;;;;6.15;3.15;;;14.10;58.90;;;;;;5059990;28;20041;-50
2022/06/14 05:34:18;;;;;;;6.47;3.67;;;14.20;60.10;;;;;;5056431;28;20048;-53
2022/06/14 05:36:55;;;;;;;6.63;3.60;;;14.30;59.90;;;;;;5056060;28;20404;-51
2022/06/14 05:39:33;;;;;;;4.13;3.65;;;14.40;60.00;;;;;;5058627;28;20253;-51
2022/06/14 05:42:09;;;;;;;6.10;3.20;;;14.50;60.20;;;;;;5054119;28;20143;-55
2022/06/14 05:44:46;;;;;;;7.18;3.90;;;14.50;59.90;;;;;;5057306;28;20266;-48
2022/06/14 05:47:17;;;;;;;6.85;3.40;;;14.70;59.90;;;;;;5056314;28;20041;-51
2022/06/14 05:49:49;;;;;;;8.30;3.30;;;14.70;59.40;;;;;;5067173;28;20068;-53
2022/06/14 05:52:33;;;;;;;4.45;3.20;;;14.80;59.20;;;;;;5058973;28;20044;-50
2022/06/14 05:55:13;;;;;;;4.43;3.22;;;14.90;59.10;;;;;;5052837;28;20098;-53
2022/06/14 05:57:57;;;;;;;8.98;3.35;;;15.00;59.40;;;;;;5059314;28;20117;-47
2022/06/14 06:00:49;;;;;;;6.72;3.58;;;15.10;60.20;;;;;;5038431;28;20051;-51
2022/06/14 06:03:26;;;;;;;4.68;3.00;;;15.20;59.50;;;;;;5069296;28;20048;-55
2022/06/14 06:06:15;;;;;;;6.18;3.10;;;15.30;59.10;;;;;;5051666;28;20060;-53
2022/06/14 06:08:50;;;;;;;5.10;2.75;;;15.40;59.40;;;;;;5054903;28;20109;-54
2022/06/14 06:11:32;;;;;;;6.82;3.05;;;15.40;59.10;;;;;;5060183;28;20097;-51
2022/06/14 06:14:15;;;;;;;5.80;2.97;;;15.50;58.80;;;;;;5066952;28;20505;-50
2022/06/14 06:16:56;;;;;;;8.43;3.80;;;15.60;59.20;;;;;;5053204;28;20052;-50
2022/06/14 06:19:50;;;;;;;6.50;3.28;;;15.70;58.50;;;;;;5067276;28;20446;-52
2022/06/14 06:22:39;;;;;;;4.50;2.80;;;15.70;58.70;;;;;;5055981;28;20040;-49
2022/06/14 06:25:14;;;;;;;7.45;2.85;;;15.80;58.90;;;;;;5058702;28;20631;-53
2022/06/14 06:27:45;;;;;;;7.45;2.75;;;15.80;58.60;;;;;;5067652;28;20044;-49
2022/06/14 06:30:28;;;;;;;4.53;2.40;;;15.90;58.70;;;;;;5046515;28;20890;-54
2022/06/14 06:32:56;;;;;;;5.32;2.42;;;15.90;58.70;;;;;;5056480;28;20569;-55
2022/06/14 06:35:34;;;;;;;4.72;2.45;;;16.00;57.60;;;;;;5054825;28;20037;-54
2022/06/14 06:38:36;;;;;;;4.88;2.08;;;16.10;58.00;;;;;;5066537;28;20067;-52
2022/06/14 06:44:35;;;;;;;5.93;2.45;;;16.20;58.10;;;;;;5062710;28;20051;-52
2022/06/14 06:47:17;;;;;;;6.88;2.08;;;16.30;57.10;;;;;;5061051;28;20050;-50
2022/06/14 06:50:12;;;;;;;4.63;2.30;;;16.30;57.20;;;;;;5048486;28;20067;-52
2022/06/14 06:53:02;;;;;;;3.85;2.00;;;16.40;57.60;;;;;;5043149;28;20064;-52
2022/06/14 06:56:20;;;;;;;8.40;2.58;;;16.40;57.70;;;;;;5054804;28;20526;-52
2022/06/14 06:58:57;;;;;;;6.32;2.63;;;16.50;57.80;;;;;;5005720;28;20049;-51
2022/06/14 07:01:35;;;;;;;4.78;2.10;;;16.60;57.20;;;;;;5002728;28;20108;-54
2022/06/14 07:04:12;;;;;;;5.00;2.50;;;16.60;57.50;;;;;;5037129;28;20462;-52
2022/06/14 07:07:05;;;;;;;6.68;2.47;;;16.70;57.20;;;;;;5054175;28;20048;-51
2022/06/14 07:09:39;;;;;;;6.65;2.40;;;16.70;57.50;;;;;;5057121;28;20049;-53
2022/06/14 07:12:12;;;;;;;5.57;2.63;;;16.90;56.70;;;;;;5052189;28;20040;-52
2022/06/14 07:14:57;;;;;;;6.75;2.85;;;16.90;56.90;;;;;;5062307;28;20033;-54
2022/06/14 07:17:27;;;;;;;4.18;2.20;;;16.90;57.70;;;;;;5063343;28;20098;-51
2022/06/14 07:20:04;;;;;;;4.97;2.10;;;17.00;56.90;;;;;;5064276;28;20044;-55
2022/06/14 07:22:34;;;;;;;4.80;2.40;;;17.00;57.00;;;;;;5052457;28;20519;-48
2022/06/14 07:25:18;;;;;;;6.53;2.45;;;17.10;56.70;;;;;;5047566;28;20067;-52
2022/06/14 07:27:55;;;;;;;7.43;2.30;;;17.10;56.80;;;;;;5064875;28;20851;-52
2022/06/14 07:30:27;;;;;;;2.97;1.70;;;17.30;56.70;;;;;;5057877;28;20122;-49
2022/06/14 07:32:58;;;;;;;7.22;2.10;;;17.30;56.00;;;;;;5070988;28;20515;-48
2022/06/14 07:35:34;;;;;;;7.13;2.25;;;17.30;55.90;;;;;;5063789;28;20044;-52
2022/06/14 07:38:36;;;;;;;6.10;2.05;;;17.40;56.40;;;;;;5067873;28;20561;-50
2022/06/14 07:41:19;;;;;;;7.53;2.05;;;17.50;56.10;;;;;;5060484;28;20056;-53
2022/06/14 07:44:03;;;;;;;4.63;1.77;;;17.60;55.90;;;;;;5055129;28;20400;-49
2022/06/14 07:46:46;;;;;;;5.25;2.50;;;17.60;55.80;;;;;;5058803;28;20163;-51
2022/06/14 07:49:25;;;;;;;5.28;2.10;;;17.70;55.30;;;;;;5065627;28;20112;-49
2022/06/14 07:51:57;;;;;;;7.60;1.77;;;17.80;55.10;;;;;;5060231;28;20047;-52
2022/06/14 07:54:29;;;;;;;4.72;2.03;;;17.90;54.70;;;;;;5068316;28;20048;-52
2022/06/14 07:57:03;;;;;;;7.03;2.40;;;18.10;55.00;;;;;;5048771;28;20520;-52
2022/06/14 07:59:55;;;;;;;2.88;2.17;;;18.20;54.40;;;;;;5063813;28;20078;-51
2022/06/14 08:02:31;;;;;;;5.63;2.15;;;18.30;53.90;;;;;;5058000;28;20048;-48
2022/06/14 08:05:09;;;;;;;4.47;2.03;;;18.50;53.70;;;;;;5068309;28;20055;-53
2022/06/14 08:07:37;;;;;;;7.32;2.17;;;18.70;53.90;;;;;;5064976;28;20044;-48
2022/06/14 08:10:22;;;;;;;4.53;2.35;;;18.90;53.60;;;;;;5068045;28;20045;-52
2022/06/14 08:12:58;;;;;;;4.18;2.10;;;19.00;52.50;;;;;;5061060;28;20045;-50
2022/06/14 08:15:34;;;;;;;5.88;2.22;;;19.20;52.20;;;;;;5062353;28;20076;-53
2022/06/14 08:18:12;;;;;;;5.97;2.17;;;19.40;51.70;;;;;;5064837;28;20542;-52
2022/06/14 08:20:50;;;;;;;5.75;2.08;;;19.50;51.40;;;;;;5062712;28;20492;-54
2022/06/14 08:23:32;;;;;;;4.00;1.92;;;19.70;51.30;;;;;;5079766;28;20105;-53
2022/06/14 08:26:11;;;;;;;5.47;2.15;;;19.80;50.80;;;;;;5057278;28;20041;-51
2022/06/14 08:28:53;;;;;;;3.78;2.22;;;19.90;50.20;;;;;;5052658;28;20041;-50
2022/06/14 08:31:33;;;;;;;6.82;2.40;;;19.90;50.20;;;;;;5064781;28;20374;-52
2022/06/14 08:34:11;;;;;;;7.95;2.78;;;19.90;50.10;;;;;;5051596;28;20040;-48
2022/06/14 08:37:15;;;;;;;5.57;2.33;;;19.90;49.80;;;;;;5056806;28;20043;-53
2022/06/14 08:39:48;;;;;;;5.47;3.85;;;19.90;49.50;;;;;;5062338;28;20040;-49
2022/06/14 08:42:34;;;;;;;7.18;2.33;;;19.90;49.30;;;;;;5064197;28;20102;-51
2022/06/14 08:45:16;;;;;;;6.32;2.38;;;19.90;48.90;;;;;;5060471;28;20049;-49
2022/06/14 08:48:04;;;;;;;6.68;2.22;;;19.80;49.10;;;;;;5069351;28;20055;-48
2022/06/14 08:50:42;;;;;;;5.50;2.60;;;19.80;49.20;;;;;;5046675;28;20115;-51
2022/06/14 08:53:40;;;;;;;5.45;2.30;;;19.80;49.30;;;;;;5060581;28;20508;-51
2022/06/14 08:56:19;;;;;;;6.22;2.45;;;19.70;49.40;;;;;;5060744;28;20045;-48
2022/06/14 08:59:11;;;;;;;4.22;2.08;;;19.60;49.60;;;;;;5061570;28;20051;-53
2022/06/14 09:02:00;;;;;;;5.82;2.40;;;19.60;49.20;;;;;;5062426;28;20051;-52
2022/06/14 09:04:50;;;;;;;4.18;2.40;;;19.60;49.70;;;;;;5063553;28;20451;-52
2022/06/14 09:07:29;;;;;;;4.85;2.70;;;19.60;49.70;;;;;;5062643;28;20040;-50
2022/06/14 09:09:56;;;;;;;4.05;2.50;;;19.50;49.90;;;;;;5070718;28;20120;-52
2022/06/14 09:12:41;;;;;;;4.13;2.25;;;19.50;49.70;;;;;;5035149;28;20052;-50
2022/06/14 09:15:27;;;;;;;5.00;2.13;;;19.50;50.10;;;;;;5060713;28;20412;-55
2022/06/14 09:18:27;;;;;;;3.92;2.20;;;19.50;50.50;;;;;;5064068;28;20467;-49
2022/06/14 09:21:32;;;;;;;3.67;2.28;;;19.60;49.80;;;;;;5060951;28;20037;-51
2022/06/14 09:24:23;;;;;;;5.45;2.72;;;19.50;49.50;;;;;;5073088;28;20040;-51
2022/06/14 09:27:34;;;;;;;5.68;2.78;;;19.60;49.80;;;;;;5063838;28;20045;-52
2022/06/14 09:30:34;;;;;;;5.72;2.10;;;19.60;49.40;;;;;;4974957;28;20065;-55
2022/06/14 09:33:15;;;;;;;3.65;2.40;;;19.60;49.30;;;;;;4986104;28;20053;-51
2022/06/14 09:36:06;;;;;;;6.63;2.50;;;19.70;48.60;;;;;;5042293;28;20121;-53
2022/06/14 09:38:58;;;;;;;3.25;2.00;;;19.70;49.30;;;;;;5067201;28;20044;-52
2022/06/14 09:42:10;;;;;;;6.60;2.50;;;19.70;49.50;;;;;;5060857;28;20101;-52
2022/06/14 09:44:56;;;;;;;4.20;2.08;;;19.70;48.60;;;;;;5057681;28;20056;-51
2022/06/14 09:48:07;;;;;;;3.40;2.20;;;19.70;48.60;;;;;;5062806;28;20392;-53
2022/06/14 09:50:56;;;;;;;5.30;2.25;;;19.70;48.20;;;;;;5059035;28;20110;-53
2022/06/14 09:53:55;;;;;;;4.03;2.90;;;19.80;48.30;;;;;;5203862;22;20677;-47
2022/06/14 09:56:39;;;;;;;4.05;1.88;;;19.80;48.20;;;;;;5040306;28;20037;-47
2022/06/14 09:59:24;;;;;;;6.28;2.20;;;19.80;48.10;;;;;;5048730;28;20506;-47
2022/06/14 10:02:10;;;;;;;5.22;2.05;;;19.90;47.80;;;;;;5030819;28;20072;-46
2022/06/14 10:05:17;;;;;;;4.55;2.05;;;19.90;48.00;;;;;;5042784;28;20049;-47
2022/06/14 10:08:11;;;;;;;4.97;2.40;;;19.90;47.60;;;;;;5042994;28;20084;-47
2022/06/14 10:10:38;;;;;;;4.32;2.13;;;20.00;48.30;;;;;;5038129;28;20051;-46
2022/06/14 10:13:29;;;;;;;4.13;2.05;;;20.00;47.80;;;;;;5039583;28;20500;-46
2022/06/14 10:16:11;;;;;;;3.95;1.67;;;20.00;48.00;;;;;;5032631;28;20029;-47
2022/06/14 10:19:17;;;;;;;2.92;1.70;;;20.00;48.20;;;;;;5041214;28;20111;-47
2022/06/14 10:22:13;;;;;;;3.67;1.63;;;20.10;46.90;;;;;;5038762;28;20616;-46
2022/06/14 10:24:54;;;;;;;3.10;1.92;;;20.10;47.00;;;;;;5047753;28;20486;-46
2022/06/14 10:28:11;;;;;;;4.65;1.92;;;20.10;46.70;;;;;;5039990;28;20120;-46
2022/06/14 10:31:03;;;;;;;3.70;1.73;;;20.20;46.90;;;;;;5034031;28;20464;-47
2022/06/14 10:33:56;;;;;;;3.58;1.45;;;20.20;46.60;;;;;;5040983;28;20068;-46
2022/06/14 10:36:47;;;;;;;1.80;1.52;;;20.20;46.30;;;;;;5037706;28;20732;-46
2022/06/14 10:39:39;;;;;;;3.05;1.58;;;20.20;45.90;;;;;;5037575;28;20050;-48
2022/06/14 10:42:18;;;;;;;5.13;2.30;;;20.30;46.60;;;;;;5039460;28;20045;-47
2022/06/14 10:45:26;;;;;;;3.33;1.33;;;20.30;46.20;;;;;;5043426;28;20561;-47
2022/06/14 10:48:08;;;;;;;5.60;1.50;;;20.30;46.40;;;;;;5039046;28;20053;-47
2022/06/14 10:50:53;;;;;;;4.38;1.58;;;20.40;47.00;;;;;;5041596;28;20045;-45
2022/06/14 10:53:27;;;;;;;5.43;1.95;;;20.40;46.40;;;;;;5045208;28;20532;-45
2022/06/14 10:56:19;;;;;;;4.30;1.23;;;20.40;46.30;;;;;;5039821;28;20041;-46
2022/06/14 10:58:49;;;;;;;;;;;20.50;46.30;;;;;;5045196;28;20053;-47
2022/06/14 11:01:40;;;;;;;3.38;1.63;;;20.50;46.50;;;;;;5037271;28;19952;-46
2022/06/14 11:04:28;;;;;;;4.60;1.45;;;20.60;46.80;;;;;;5048935;28;20048;-44
2022/06/14 11:06:57;;;;;;;4.47;1.35;;;20.60;46.80;;;;;;5038487;28;20056;-46
2022/06/14 11:09:45;;;;;;;4.10;1.65;;;20.70;47.30;;;;;;5049004;28;20068;-46
2022/06/14 11:12:24;;;;;;;4.95;1.52;;;20.80;46.20;;;;;;5040333;28;20045;-46
2022/06/14 11:15:22;;;;;;;4.30;2.40;;;20.90;46.30;;;;;;5047050;28;20056;-45
2022/06/14 11:18:30;;;;;;;5.05;2.85;;;20.90;47.00;;;;;;5046554;28;20550;-46
2022/06/14 11:21:26;;;;;;;5.30;2.60;;;21.00;46.00;;;;;;5034491;28;20049;-46
2022/06/14 11:24:09;;;;;;;4.22;2.30;;;21.10;46.30;;;;;;4997961;28;20644;-45
2022/06/14 11:26:52;;;;;;;4.35;2.17;;;21.20;45.40;;;;;;5023028;28;20064;-47
2022/06/14 11:29:37;;;;;;;3.85;1.35;;;21.30;45.80;;;;;;5049392;28;20075;-44
2022/06/14 11:32:29;;;;;;;2.92;1.60;;;21.40;45.00;;;;;;5039412;28;20395;-46
2022/06/14 11:35:25;;;;;;;6.77;2.67;;;21.40;45.90;;;;;;5044793;28;20044;-46
2022/06/14 11:38:10;;;;;;;5.10;2.80;;;21.60;44.90;;;;;;5046421;28;20572;-46
2022/06/14 11:40:44;;;;;;;4.88;2.22;;;21.70;43.70;;;;;;5039790;28;20045;-47
2022/06/14 11:43:16;;;;;;;4.55;2.30;;;21.80;44.50;;;;;;5050067;28;20041;-45
2022/06/14 11:45:54;;;;;;;6.95;3.03;;;21.90;44.80;;;;;;5036579;28;20061;-46
2022/06/14 11:48:34;;;;;;;4.53;2.10;;;21.90;44.00;;;;;;5048780;28;20505;-48
2022/06/14 11:51:11;;;;;;;5.18;2.35;;;22.00;44.10;;;;;;5044196;28;20049;-47
2022/06/14 11:53:55;;;;;;;4.43;2.00;;;22.10;44.70;;;;;;5020523;28;20036;-46
2022/06/14 11:56:28;;;;;;;3.88;1.55;;;22.20;43.50;;;;;;5038355;28;20114;-46
2022/06/14 11:59:14;;;;;;;2.60;1.55;;;22.30;44.00;;;;;;5034211;28;20658;-51
2022/06/14 12:01:49;;;;;;;5.45;2.15;;;22.30;43.50;;;;;;5044207;28;20608;-49
2022/06/14 12:04:26;;;;;;;4.38;1.63;;;22.40;43.40;;;;;;5048293;28;20075;-47
2022/06/14 12:07:07;;;;;;;2.70;1.88;;;22.40;42.80;;;;;;5039999;28;20045;-48
2022/06/14 12:10:15;;;;;;;3.60;1.45;;;22.60;42.30;;;;;;5050028;28;20045;-46
2022/06/14 12:13:11;;;;;;;5.15;1.70;;;22.60;42.40;;;;;;5039445;28;20095;-47
2022/06/14 12:15:38;;;;;;;1.83;1.70;;;22.70;43.40;;;;;;5036114;28;20526;-47
2022/06/14 12:18:09;;;;;;;3.88;1.35;;;22.80;42.50;;;;;;5049198;28;20710;-47
2022/06/14 12:20:45;;;;;;;2.15;1.42;;;22.90;42.50;;;;;;5042765;28;20060;-45
2022/06/14 12:23:28;;;;;;;3.10;1.55;;;23.00;42.40;;;;;;5037312;28;20044;-47
2022/06/14 12:29:26;;;;;;;4.72;1.77;;;23.10;41.60;;;;;;5045607;28;20139;-49
2022/06/14 12:32:20;;;;;;;3.35;1.30;;;23.20;40.60;;;;;;5037967;28;20073;-47
2022/06/14 12:34:55;;;;;;;3.35;1.70;;;23.30;40.80;;;;;;5028370;28;20049;-45
2022/06/14 12:37:41;;;;;;;2.88;1.52;;;23.30;40.80;;;;;;5034902;28;20094;-47
2022/06/14 12:40:24;;;;;;;3.35;1.48;;;23.40;41.10;;;;;;5041286;28;20055;-43
2022/06/14 12:43:17;;;;;;;4.70;1.73;;;23.50;41.00;;;;;;5046516;28;20562;-47
2022/06/14 12:45:53;;;;;;;2.03;1.40;;;23.50;41.20;;;;;;5037423;28;20729;-47
2022/06/14 12:48:48;;;;;;;4.40;1.20;;;23.60;40.60;;;;;;5047402;28;20078;-47
2022/06/14 12:51:37;;;;;;;5.13;1.50;;;23.70;40.40;;;;;;5040432;28;20106;-45
2022/06/14 12:54:34;;;;;;;3.95;1.05;;;23.70;39.70;;;;;;5046865;28;20048;-47
2022/06/14 12:57:33;;;;;;;2.70;1.23;;;23.80;40.10;;;;;;5034293;28;20049;-47
2022/06/14 13:00:03;;;;;;;2.95;1.10;;;23.90;40.20;;;;;;5048209;28;20787;-44
2022/06/14 13:02:33;;;;;;;2.13;1.00;;;24.00;40.80;;;;;;5044095;28;20496;-46
2022/06/14 13:05:10;;;;;;;1.98;1.08;;;24.10;40.30;;;;;;5044199;28;20045;-45
2022/06/14 13:07:45;;;;;;;1.92;1.30;;;24.20;40.40;;;;;;5041308;28;20559;-46
2022/06/14 13:10:26;;;;;;;4.40;1.20;;;24.30;40.70;;;;;;5040477;28;20041;-44
2022/06/14 13:13:11;;;;;;;2.90;1.10;;;24.50;39.70;;;;;;5051240;28;20040;-47
2022/06/14 13:15:54;;;;;;;5.30;1.17;;;24.70;39.30;;;;;;5037259;28;20151;-44
2022/06/14 13:18:39;;;;;;;;;;;24.90;39.20;;;;;;5046633;28;20037;-46
2022/06/14 13:21:21;;;;;;;1.85;1.23;;;25.10;40.30;;;;;;5034092;28;19921;-46
2022/06/14 13:24:00;;;;;;;2.20;1.00;;;25.30;38.30;;;;;;5037271;28;20488;-48
2022/06/14 13:26:48;;;;;;;2.40;1.27;;;25.50;37.80;;;;;;5034411;28;20059;-49
2022/06/14 13:29:34;;;;;;;3.35;0.77;;;25.70;37.60;;;;;;5039396;28;20049;-44
2022/06/14 13:32:09;;;;;;;2.03;0.90;;;26.20;37.80;;;;;;5038963;28;20037;-46
2022/06/14 13:34:59;;;;;;;3.63;1.52;;;26.90;38.20;;;;;;5045465;28;20041;-44
2022/06/14 13:37:40;;;;;;;3.63;1.15;;;27.80;38.10;;;;;;5037445;28;20063;-49
2022/06/14 13:40:40;;;;;;;3.05;1.00;;;29.00;38.00;;;;;;5041240;28;20106;-45
2022/06/14 13:43:24;;;;;;;1.50;0.93;;;30.40;37.70;;;;;;5046039;28;20420;-48
2022/06/14 13:46:01;;;;;;;4.20;1.05;;;32.00;36.00;;;;;;5035696;28;20606;-46
2022/06/14 13:48:38;;;;;;;1.83;0.70;;;33.60;33.80;;;;;;5044524;28;20047;-48
2022/06/14 13:51:08;;;;;;;2.92;1.17;;;35.10;32.50;;;;;;5040699;28;20047;-48
2022/06/14 13:53:46;;;;;;;0.90;0.60;;;36.30;31.60;;;;;;5042335;28;20049;-49
2022/06/14 13:56:26;;;;;;;5.03;1.10;;;37.50;29.40;;;;;;5039238;28;20118;-51
2022/06/14 13:59:10;;;;;;;2.78;1.00;;;38.50;28.60;;;;;;5044819;28;20037;-50
2022/06/14 14:02:00;;;;;;;2.30;1.05;;;39.40;28.30;;;;;;5034813;28;20051;-49
2022/06/14 14:04:35;;;;;;;4.55;1.05;;;40.20;28.70;;;;;;5041885;28;20045;-50
2022/06/14 14:07:26;;;;;;;1.30;0.90;;;40.90;26.80;;;;;;5023433;28;20509;-52
2022/06/14 14:10:21;;;;;;;3.05;1.00;;;41.50;26.20;;;;;;5039809;28;20033;-45